Time;durP1;ratioP1;P1;durP2;ratioP2;P2;SDS_P1;SDS_P2;PMS_P1;PMS_P2;Temp;Humidity;BMP_temperature;BMP_pressure;BME280_temperature;BME280_humidity;BME280_pressure;Samples;Min_cycle;Max_cycle;Signal;HPM_P1;HPM_P2
2023/02/10 00:01:30;;;;;;;13.60;8.20;;;4.10;74.40;;;;;;5048501;28;20593;-64
2023/02/10 00:03:56;;;;;;;11.70;7.07;;;4.10;74.30;;;;;;5051360;28;20582;-63
2023/02/10 00:06:26;;;;;;;14.50;7.90;;;4.10;74.40;;;;;;5052711;28;20108;-64
2023/02/10 00:08:59;;;;;;;12.52;8.70;;;4.10;74.50;;;;;;5049435;28;20033;-64
2023/02/10 00:14:16;;;;;;;18.85;10.20;;;4.10;75.00;;;;;;5049515;28;20082;-61
2023/02/10 00:16:41;;;;;;;16.60;7.80;;;4.10;75.40;;;;;;5050052;28;20507;-61
2023/02/10 00:19:07;;;;;;;18.15;9.25;;;4.10;75.70;;;;;;5047967;28;20028;-61
2023/02/10 00:21:33;;;;;;;41.63;9.57;;;4.10;75.80;;;;;;5051022;28;20036;-61
2023/02/10 00:23:59;;;;;;;14.63;9.60;;;4.10;76.00;;;;;;5047113;28;20045;-64
2023/02/10 00:26:25;;;;;;;13.70;8.50;;;4.10;76.20;;;;;;5049550;28;20059;-65
2023/02/10 00:28:52;;;;;;;11.30;7.55;;;4.20;76.50;;;;;;5054865;28;20040;-61
2023/02/10 00:31:18;;;;;;;13.15;8.70;;;4.20;76.50;;;;;;5051075;28;20025;-62
2023/02/10 00:33:45;;;;;;;20.63;9.15;;;4.20;76.60;;;;;;5051926;28;20044;-61
2023/02/10 00:36:13;;;;;;;10.48;6.35;;;4.20;76.50;;;;;;5043010;28;20392;-65
2023/02/10 00:38:40;;;;;;;13.77;8.32;;;4.20;76.40;;;;;;5045246;28;20108;-64
2023/02/10 00:41:12;;;;;;;15.20;8.65;;;4.30;76.50;;;;;;5048968;28;20495;-61
2023/02/10 00:43:39;;;;;;;16.90;7.68;;;4.30;76.60;;;;;;5051131;28;20044;-62
2023/02/10 00:46:06;;;;;;;13.27;7.85;;;4.30;76.70;;;;;;5038774;28;20053;-64
2023/02/10 00:48:32;;;;;;;11.85;7.13;;;4.20;76.70;;;;;;5043512;28;20037;-64
2023/02/10 00:50:58;;;;;;;19.20;7.68;;;4.30;76.60;;;;;;5050019;28;20032;-61
2023/02/10 00:53:23;;;;;;;16.92;8.93;;;4.30;76.80;;;;;;5049288;28;20025;-61
2023/02/10 00:55:49;;;;;;;10.52;8.02;;;4.30;76.90;;;;;;5045910;28;20118;-64
2023/02/10 00:58:15;;;;;;;12.93;8.00;;;4.30;77.10;;;;;;5048179;28;20032;-64
2023/02/10 01:00:40;;;;;;;17.75;7.20;;;4.40;77.40;;;;;;5050029;28;20035;-64
2023/02/10 01:03:06;;;;;;;8.48;6.25;;;4.40;78.10;;;;;;5052483;28;20044;-61
2023/02/10 01:05:32;;;;;;;10.88;7.55;;;4.40;77.50;;;;;;5064640;28;20029;-64
2023/02/10 01:07:57;;;;;;;10.40;6.22;;;4.40;77.60;;;;;;5051861;28;20032;-64
2023/02/10 01:10:23;;;;;;;23.45;6.80;;;4.40;77.70;;;;;;5047714;28;20448;-64
2023/02/10 01:12:49;;;;;;;14.65;5.70;;;4.50;78.00;;;;;;5047967;28;20040;-64
2023/02/10 01:15:15;;;;;;;13.88;6.80;;;4.50;78.10;;;;;;5054255;28;20155;-64
2023/02/10 01:17:40;;;;;;;10.45;7.95;;;4.50;78.40;;;;;;5047949;28;20033;-65
2023/02/10 01:20:06;;;;;;;12.45;5.85;;;4.50;78.40;;;;;;5045736;28;20039;-64
2023/02/10 01:22:33;;;;;;;17.55;6.13;;;4.60;78.60;;;;;;5055714;28;20506;-61
2023/02/10 01:24:59;;;;;;;15.00;6.70;;;4.60;78.70;;;;;;5052066;28;20033;-64
2023/02/10 01:27:24;;;;;;;11.00;7.07;;;4.70;78.80;;;;;;5047137;28;20037;-64
2023/02/10 01:29:50;;;;;;;10.85;7.32;;;4.70;78.80;;;;;;5042439;28;20037;-61
2023/02/10 01:32:16;;;;;;;9.95;6.43;;;4.70;78.80;;;;;;5040884;28;20392;-64
2023/02/10 01:34:42;;;;;;;12.07;7.90;;;4.70;78.90;;;;;;5045208;28;20034;-61
2023/02/10 01:37:07;;;;;;;8.15;6.28;;;4.70;78.90;;;;;;5048453;28;20031;-62
2023/02/10 01:39:33;;;;;;;34.15;6.93;;;4.70;79.00;;;;;;5044208;28;20039;-62
2023/02/10 01:41:59;;;;;;;19.35;7.05;;;4.70;78.90;;;;;;5048835;28;20025;-61
2023/02/10 01:44:24;;;;;;;7.60;5.63;;;4.70;79.20;;;;;;5046482;28;20118;-61
2023/02/10 01:46:50;;;;;;;20.45;6.60;;;4.70;79.30;;;;;;5051597;28;20032;-62
2023/02/10 01:49:19;;;;;;;24.42;7.03;;;4.70;79.40;;;;;;5045709;28;20617;-61
2023/02/10 01:51:51;;;;;;;12.15;6.15;;;4.70;79.40;;;;;;5054806;28;20017;-61
2023/02/10 01:54:20;;;;;;;10.80;7.45;;;4.70;79.50;;;;;;5048014;28;20480;-61
2023/02/10 01:56:47;;;;;;;33.95;7.60;;;4.70;79.50;;;;;;5041151;28;20469;-61
2023/02/10 01:59:14;;;;;;;11.50;6.45;;;4.60;79.70;;;;;;5075340;28;20470;-62
2023/02/10 02:01:40;;;;;;;9.20;5.90;;;4.60;79.70;;;;;;5039300;28;20025;-61
2023/02/10 02:04:06;;;;;;;9.25;6.55;;;4.60;79.70;;;;;;5053309;28;20480;-61
2023/02/10 02:06:34;;;;;;;9.38;5.15;;;4.60;79.80;;;;;;5047385;28;20115;-64
2023/02/10 02:09:00;;;;;;;10.63;6.43;;;4.60;80.00;;;;;;5046238;28;20072;-61
2023/02/10 02:11:26;;;;;;;8.27;6.28;;;4.60;80.00;;;;;;5038686;28;20033;-64
2023/02/10 02:14:16;;;;;;;9.27;5.30;;;4.50;79.90;;;;;;5044944;28;20554;-62
2023/02/10 02:17:00;;;;;;;9.88;5.60;;;4.60;79.70;;;;;;5045981;28;20056;-61
2023/02/10 02:20:39;;;;;;;10.25;5.63;;;4.50;79.80;;;;;;5049603;28;20028;-62
2023/02/10 02:22:54;;;;;;;19.23;6.22;;;4.50;79.80;;;;;;5041137;28;20134;-62
2023/02/10 02:25:32;;;;;;;6.63;5.15;;;4.50;80.20;;;;;;5048387;28;20487;-62
2023/02/10 02:28:22;;;;;;;12.15;6.43;;;4.40;80.50;;;;;;5038442;28;20080;-64
2023/02/10 02:31:27;;;;;;;12.68;7.13;;;4.30;80.70;;;;;;5039240;28;20049;-62
2023/02/10 02:33:57;;;;;;;7.55;5.80;;;4.20;80.90;;;;;;5043668;28;20025;-61
2023/02/10 02:36:34;;;;;;;15.73;5.85;;;4.20;81.10;;;;;;5047664;28;20124;-61
2023/02/10 02:39:02;;;;;;;9.52;6.60;;;4.30;81.00;;;;;;5045908;28;20044;-64
2023/02/10 02:41:29;;;;;;;11.10;6.85;;;4.30;81.00;;;;;;5063895;28;20024;-64
2023/02/10 02:43:57;;;;;;;9.25;6.28;;;4.30;80.90;;;;;;5048932;28;20040;-64
2023/02/10 02:46:51;;;;;;;13.88;6.63;;;4.30;80.80;;;;;;5063446;28;20526;-64
2023/02/10 02:49:40;;;;;;;9.07;5.72;;;4.40;80.90;;;;;;5045743;28;20472;-64
2023/02/10 02:52:12;;;;;;;9.00;6.03;;;4.40;80.90;;;;;;5043986;28;20108;-65
2023/02/10 02:54:55;;;;;;;10.82;6.88;;;4.40;80.90;;;;;;5042880;28;20021;-64
2023/02/10 02:57:27;;;;;;;8.82;6.10;;;4.50;81.20;;;;;;5046248;28;20549;-64
2023/02/10 03:00:07;;;;;;;10.68;6.95;;;4.50;80.90;;;;;;5048449;28;20071;-64
2023/02/10 03:02:34;;;;;;;23.63;5.97;;;4.50;81.00;;;;;;5042514;28;20028;-61
2023/02/10 03:05:00;;;;;;;10.55;7.10;;;4.50;81.00;;;;;;5047922;28;20040;-61
2023/02/10 03:07:25;;;;;;;11.40;6.55;;;4.50;81.00;;;;;;5061477;28;20033;-65
2023/02/10 03:09:51;;;;;;;10.02;6.95;;;4.60;81.10;;;;;;5043806;28;20057;-64
2023/02/10 03:12:17;;;;;;;13.25;6.45;;;4.60;81.00;;;;;;5046917;28;20032;-65
2023/02/10 03:14:43;;;;;;;8.43;6.97;;;4.60;80.80;;;;;;5045474;28;20032;-65
2023/02/10 03:17:08;;;;;;;11.68;7.75;;;4.60;80.90;;;;;;5042848;28;20013;-65
2023/02/10 03:19:34;;;;;;;8.63;5.70;;;4.60;80.90;;;;;;5068511;28;20040;-65
2023/02/10 03:22:00;;;;;;;16.55;7.13;;;4.60;80.80;;;;;;5045104;28;20400;-65
2023/02/10 03:24:26;;;;;;;8.23;6.50;;;4.60;80.80;;;;;;5049503;28;20618;-60
2023/02/10 03:26:52;;;;;;;10.35;7.13;;;4.60;80.90;;;;;;5059892;28;20028;-61
2023/02/10 03:29:17;;;;;;;11.63;7.05;;;4.60;80.80;;;;;;5047344;28;20041;-61
2023/02/10 03:31:43;;;;;;;11.90;7.55;;;4.60;80.80;;;;;;5046798;28;20033;-64
2023/02/10 03:34:09;;;;;;;26.50;6.97;;;4.60;80.70;;;;;;5050683;28;20572;-64
2023/02/10 03:36:35;;;;;;;10.55;8.20;;;4.60;80.70;;;;;;5047166;28;20025;-65
2023/02/10 03:39:03;;;;;;;11.48;6.78;;;4.60;80.80;;;;;;5042718;28;20029;-65
2023/02/10 03:41:28;;;;;;;10.30;6.28;;;4.60;80.90;;;;;;5046800;28;20032;-64
2023/02/10 03:43:54;;;;;;;10.40;6.38;;;4.60;81.00;;;;;;5048610;28;20388;-64
2023/02/10 03:46:21;;;;;;;14.20;6.70;;;4.60;81.00;;;;;;5043060;28;20029;-62
2023/02/10 03:48:47;;;;;;;11.60;7.28;;;4.50;80.90;;;;;;5044161;28;20041;-61
2023/02/10 03:51:12;;;;;;;12.65;7.60;;;4.50;81.00;;;;;;5045453;28;20035;-65
2023/02/10 03:53:38;;;;;;;8.95;6.75;;;4.50;81.00;;;;;;5048019;28;20029;-64
2023/02/10 03:56:05;;;;;;;15.52;7.32;;;4.50;81.00;;;;;;5043954;28;20029;-64
2023/02/10 03:58:30;;;;;;;11.55;6.95;;;4.50;80.90;;;;;;5041992;28;20712;-64
2023/02/10 04:00:56;;;;;;;9.95;7.30;;;4.50;80.90;;;;;;5045557;28;20044;-65
2023/02/10 04:03:22;;;;;;;10.82;7.32;;;4.40;80.90;;;;;;5051806;28;20114;-65
2023/02/10 04:05:47;;;;;;;9.65;6.72;;;4.40;80.70;;;;;;5052216;28;20444;-64
2023/02/10 04:08:13;;;;;;;8.50;6.60;;;4.40;80.80;;;;;;5041308;28;20403;-63
2023/02/10 04:10:39;;;;;;;7.57;5.43;;;4.40;80.80;;;;;;5047497;28;20090;-61
2023/02/10 04:13:05;;;;;;;12.40;7.38;;;4.40;80.70;;;;;;5039856;28;20036;-62
2023/02/10 04:15:30;;;;;;;19.60;7.45;;;4.40;80.70;;;;;;5058224;28;20045;-61
2023/02/10 04:17:56;;;;;;;8.45;6.35;;;4.40;80.70;;;;;;5060518;28;20079;-61
2023/02/10 04:20:23;;;;;;;16.85;8.90;;;4.40;80.70;;;;;;5052965;28;20098;-62
2023/02/10 04:22:48;;;;;;;9.65;7.47;;;4.40;80.60;;;;;;5067339;28;20056;-61
2023/02/10 04:25:14;;;;;;;12.50;7.82;;;4.40;80.60;;;;;;5043769;28;20527;-61
2023/02/10 04:27:40;;;;;;;32.13;8.07;;;4.30;80.50;;;;;;5045113;28;20033;-60
2023/02/10 04:30:06;;;;;;;15.10;7.05;;;4.30;80.70;;;;;;5049675;28;20037;-64
2023/02/10 04:32:32;;;;;;;9.95;6.05;;;4.30;80.70;;;;;;5041499;28;20098;-64
2023/02/10 04:34:57;;;;;;;10.50;7.22;;;4.20;80.70;;;;;;5045178;28;20033;-64
2023/02/10 04:37:23;;;;;;;8.48;6.47;;;4.20;80.80;;;;;;5039382;28;20163;-64
2023/02/10 04:39:49;;;;;;;34.30;7.80;;;4.20;80.80;;;;;;5040453;28;20365;-64
2023/02/10 04:42:14;;;;;;;23.83;7.30;;;4.10;80.90;;;;;;5041415;28;20583;-61
2023/02/10 04:44:40;;;;;;;14.73;7.18;;;4.00;80.90;;;;;;5044547;28;20491;-62
2023/02/10 04:47:06;;;;;;;16.25;7.25;;;4.00;81.00;;;;;;5051456;28;20083;-61
2023/02/10 04:49:31;;;;;;;8.40;6.20;;;3.90;81.20;;;;;;5045213;28;20029;-65
2023/02/10 04:51:57;;;;;;;14.48;9.05;;;3.90;81.30;;;;;;5066783;28;20052;-64
2023/02/10 04:54:22;;;;;;;11.60;7.00;;;3.90;81.30;;;;;;5044551;28;20534;-64
2023/02/10 04:56:48;;;;;;;24.40;8.80;;;3.90;81.40;;;;;;5049356;28;20032;-61
2023/02/10 04:59:14;;;;;;;13.93;8.48;;;3.90;81.60;;;;;;5055261;28;20120;-62
2023/02/10 05:01:40;;;;;;;13.95;7.55;;;3.90;81.50;;;;;;5048240;28;20585;-64
2023/02/10 05:04:05;;;;;;;14.30;8.07;;;3.90;81.70;;;;;;5047516;28;20480;-64
2023/02/10 05:06:31;;;;;;;9.98;7.28;;;3.90;81.50;;;;;;5046696;28;20028;-65
2023/02/10 05:08:57;;;;;;;15.15;8.02;;;3.90;81.50;;;;;;5049952;28;20143;-63
2023/02/10 05:11:23;;;;;;;12.60;8.00;;;3.90;81.60;;;;;;5044607;28;20037;-61
2023/02/10 05:13:48;;;;;;;12.80;8.88;;;3.90;81.70;;;;;;5073881;28;20437;-61
2023/02/10 05:16:16;;;;;;;14.55;9.15;;;3.90;81.60;;;;;;5048149;28;20025;-64
2023/02/10 05:18:43;;;;;;;14.20;7.53;;;3.90;81.60;;;;;;5038374;28;20033;-64
2023/02/10 05:21:11;;;;;;;14.63;7.32;;;3.90;81.70;;;;;;5049077;28;20111;-65
2023/02/10 05:23:37;;;;;;;15.70;9.63;;;3.90;81.60;;;;;;5049716;28;20037;-64
2023/02/10 05:26:03;;;;;;;18.05;8.43;;;3.90;81.60;;;;;;5049784;28;20090;-63
2023/02/10 05:28:28;;;;;;;14.95;8.60;;;3.90;81.60;;;;;;5046539;28;20187;-65
2023/02/10 05:30:54;;;;;;;14.73;8.35;;;4.00;81.60;;;;;;5046225;28;20028;-64
2023/02/10 05:33:20;;;;;;;14.35;8.65;;;4.00;81.40;;;;;;5046343;28;20052;-63
2023/02/10 05:35:46;;;;;;;12.52;7.10;;;4.00;81.50;;;;;;5048218;28;20043;-64
2023/02/10 05:38:12;;;;;;;12.02;7.75;;;4.00;81.40;;;;;;5047996;28;20026;-61
2023/02/10 05:40:38;;;;;;;10.50;7.65;;;4.00;81.40;;;;;;5047175;28;20377;-62
2023/02/10 05:43:04;;;;;;;14.15;8.13;;;3.90;81.20;;;;;;5051840;28;20087;-62
2023/02/10 05:45:29;;;;;;;14.68;8.95;;;4.00;81.20;;;;;;5050792;28;20432;-61
2023/02/10 05:47:55;;;;;;;12.20;8.07;;;4.00;81.20;;;;;;5071424;28;20059;-62
2023/02/10 05:50:21;;;;;;;11.38;6.95;;;3.90;81.10;;;;;;5043009;28;20115;-61
2023/02/10 05:52:47;;;;;;;15.00;7.95;;;4.00;81.20;;;;;;5043558;28;20392;-61
2023/02/10 05:55:12;;;;;;;33.67;9.75;;;3.90;81.00;;;;;;5044859;28;20032;-60
2023/02/10 05:57:38;;;;;;;13.15;9.20;;;3.90;81.10;;;;;;5047166;28;20027;-61
2023/02/10 06:00:06;;;;;;;13.93;8.90;;;3.90;81.20;;;;;;5047112;28;20101;-61
2023/02/10 06:02:31;;;;;;;18.48;9.85;;;3.90;81.30;;;;;;5043791;28;20036;-61
2023/02/10 06:04:57;;;;;;;12.88;8.05;;;3.90;81.30;;;;;;5048010;28;20144;-62
2023/02/10 06:07:23;;;;;;;13.00;7.50;;;3.90;81.30;;;;;;5044608;28;20037;-62
2023/02/10 06:09:48;;;;;;;17.95;9.63;;;3.90;81.50;;;;;;5048655;28;20033;-61
2023/02/10 06:12:14;;;;;;;11.63;7.05;;;3.90;81.60;;;;;;5045236;28;20544;-61
2023/02/10 06:14:40;;;;;;;18.65;8.18;;;3.90;81.50;;;;;;5044892;28;20380;-61
2023/02/10 06:17:09;;;;;;;18.25;9.98;;;3.90;81.60;;;;;;5047577;28;20052;-62
2023/02/10 06:19:36;;;;;;;18.55;10.13;;;3.90;81.70;;;;;;5045666;28;20052;-61
2023/02/10 06:22:02;;;;;;;18.10;9.75;;;3.90;81.80;;;;;;5044530;28;20028;-68
2023/02/10 06:24:28;;;;;;;14.43;10.07;;;3.90;81.90;;;;;;5060441;28;20047;-70
2023/02/10 06:26:54;;;;;;;17.95;10.13;;;3.80;81.80;;;;;;5042731;28;20025;-68
2023/02/10 06:29:20;;;;;;;17.15;10.68;;;3.90;81.90;;;;;;5046451;28;20036;-68
2023/02/10 06:31:45;;;;;;;21.98;11.55;;;3.90;81.80;;;;;;5042954;28;20059;-70
2023/02/10 06:34:11;;;;;;;15.55;9.20;;;3.80;81.70;;;;;;5043026;28;20108;-69
2023/02/10 06:36:37;;;;;;;15.20;8.13;;;3.90;81.80;;;;;;5045808;28;20048;-70
2023/02/10 06:39:03;;;;;;;22.65;11.48;;;3.90;81.80;;;;;;5045034;28;20041;-70
2023/02/10 06:41:29;;;;;;;14.23;8.70;;;3.90;82.00;;;;;;5046824;28;20025;-69
2023/02/10 06:43:54;;;;;;;19.58;10.98;;;3.90;81.90;;;;;;5045590;28;20620;-69
2023/02/10 06:46:20;;;;;;;13.40;9.43;;;3.90;81.90;;;;;;5046027;28;20028;-65
2023/02/10 06:48:46;;;;;;;16.05;8.90;;;3.90;81.90;;;;;;5043178;28;20033;-64
2023/02/10 06:51:12;;;;;;;20.35;10.30;;;3.90;81.80;;;;;;5047502;28;20114;-66
2023/02/10 06:53:37;;;;;;;15.95;10.57;;;3.90;81.90;;;;;;5046859;28;20112;-66
2023/02/10 06:56:03;;;;;;;51.47;12.82;;;3.90;82.00;;;;;;5045551;28;20025;-66
2023/02/10 06:58:29;;;;;;;37.47;12.35;;;3.90;82.00;;;;;;5045649;28;20036;-68
2023/02/10 07:00:55;;;;;;;23.70;12.07;;;3.90;82.20;;;;;;5059526;28;20476;-65
2023/02/10 07:03:21;;;;;;;24.63;12.70;;;3.80;82.40;;;;;;5045038;28;20025;-66
2023/02/10 07:05:46;;;;;;;29.13;12.02;;;3.80;82.40;;;;;;5047213;28;20095;-67
2023/02/10 07:08:12;;;;;;;33.40;14.02;;;3.80;82.40;;;;;;5043809;28;20495;-67
2023/02/10 07:10:38;;;;;;;23.77;11.57;;;3.80;82.40;;;;;;5074698;28;20111;-67
2023/02/10 07:13:04;;;;;;;27.40;12.57;;;3.80;82.40;;;;;;5044726;28;20454;-67
2023/02/10 07:15:31;;;;;;;47.78;13.95;;;3.80;83.10;;;;;;5044264;28;20033;-66
2023/02/10 07:17:56;;;;;;;25.65;12.52;;;3.70;82.70;;;;;;5044153;28;20068;-64
2023/02/10 07:20:23;;;;;;;30.25;14.38;;;3.70;83.40;;;;;;5045783;28;20040;-66
2023/02/10 07:22:50;;;;;;;21.27;13.32;;;3.60;83.20;;;;;;5043851;28;20084;-65
2023/02/10 07:25:15;;;;;;;20.50;11.20;;;3.60;83.20;;;;;;5076083;28;20021;-65
2023/02/10 07:27:41;;;;;;;20.92;13.23;;;3.60;83.30;;;;;;5036888;28;20041;-65
2023/02/10 07:30:07;;;;;;;22.48;12.50;;;3.70;83.40;;;;;;5042308;28;20094;-67
2023/02/10 07:32:33;;;;;;;24.52;12.80;;;3.70;83.40;;;;;;5036243;28;20140;-65
2023/02/10 07:34:59;;;;;;;17.95;12.52;;;3.70;83.20;;;;;;5035394;28;20140;-65
2023/02/10 07:37:26;;;;;;;19.92;12.30;;;3.70;83.10;;;;;;5040019;28;20112;-65
2023/02/10 07:39:52;;;;;;;22.17;11.43;;;3.70;83.00;;;;;;5066477;28;20051;-63
2023/02/10 07:42:17;;;;;;;38.17;14.73;;;3.80;83.00;;;;;;5045576;28;20024;-63
2023/02/10 07:44:43;;;;;;;19.40;12.55;;;3.80;82.90;;;;;;5046167;28;20032;-62
2023/02/10 07:47:10;;;;;;;20.67;12.05;;;3.80;83.00;;;;;;5052578;28;20628;-62
2023/02/10 07:49:36;;;;;;;26.23;14.10;;;3.70;83.20;;;;;;5045513;28;20033;-62
2023/02/10 07:52:02;;;;;;;21.75;11.82;;;3.60;83.30;;;;;;5046712;28;20078;-62
2023/02/10 07:54:28;;;;;;;35.28;13.13;;;3.70;83.50;;;;;;5044199;28;20032;-63
2023/02/10 07:56:53;;;;;;;32.10;13.88;;;3.70;83.40;;;;;;5045100;28;20369;-63
2023/02/10 07:59:19;;;;;;;23.27;12.23;;;3.80;83.50;;;;;;5048030;28;20041;-61
2023/02/10 08:01:45;;;;;;;31.48;13.55;;;3.80;83.30;;;;;;5052157;28;20031;-65
2023/02/10 08:04:11;;;;;;;19.88;12.85;;;3.80;83.20;;;;;;5066671;28;21568;-65
2023/02/10 08:06:37;;;;;;;34.35;13.20;;;3.80;83.00;;;;;;5049416;28;20447;-64
2023/02/10 08:09:03;;;;;;;16.00;10.82;;;3.80;83.00;;;;;;5050637;28;20120;-64
2023/02/10 08:11:29;;;;;;;19.67;11.88;;;3.90;83.00;;;;;;5052287;28;20739;-61
2023/02/10 08:13:55;;;;;;;32.30;12.05;;;3.90;82.80;;;;;;5056571;28;20090;-62
2023/02/10 08:16:21;;;;;;;18.27;9.90;;;3.90;82.70;;;;;;5038901;28;20060;-62
2023/02/10 08:18:46;;;;;;;17.50;10.18;;;3.90;82.70;;;;;;5050651;28;20041;-62
2023/02/10 08:21:12;;;;;;;17.50;11.70;;;3.90;82.80;;;;;;5045298;28;20091;-62
2023/02/10 08:23:38;;;;;;;18.95;10.98;;;3.90;82.80;;;;;;5052251;28;20036;-62
2023/02/10 08:26:11;;;;;;;16.30;9.95;;;3.90;82.60;;;;;;5045641;28;20034;-61
2023/02/10 08:28:37;;;;;;;15.95;10.02;;;3.90;82.60;;;;;;5047273;28;20025;-62
2023/02/10 08:31:08;;;;;;;17.77;9.73;;;3.90;82.70;;;;;;5041112;28;20033;-63
2023/02/10 08:33:35;;;;;;;21.42;11.65;;;3.90;82.70;;;;;;5048053;28;20119;-61
2023/02/10 08:36:06;;;;;;;13.18;9.45;;;3.90;82.70;;;;;;5038805;28;20333;-60
2023/02/10 08:38:31;;;;;;;23.45;10.95;;;3.80;82.60;;;;;;5034539;28;20365;-62
2023/02/10 08:40:58;;;;;;;20.27;10.02;;;3.80;82.70;;;;;;5044603;28;20028;-61
2023/02/10 08:43:24;;;;;;;38.55;11.38;;;3.80;82.70;;;;;;5043783;28;20582;-62
2023/02/10 08:45:50;;;;;;;20.52;11.05;;;3.80;82.80;;;;;;5047401;28;20100;-61
2023/02/10 08:48:17;;;;;;;16.65;10.55;;;3.70;82.90;;;;;;5041465;28;20462;-62
2023/02/10 08:50:43;;;;;;;18.60;9.52;;;3.70;82.90;;;;;;5040128;28;20389;-61
2023/02/10 08:53:09;;;;;;;15.00;9.40;;;3.70;82.80;;;;;;5043034;28;20377;-61
2023/02/10 08:55:36;;;;;;;21.88;10.88;;;3.70;82.90;;;;;;5042452;28;20401;-61
2023/02/10 08:58:02;;;;;;;12.18;8.90;;;3.80;82.90;;;;;;5039612;28;20460;-61
2023/02/10 09:00:27;;;;;;;13.70;9.10;;;3.80;82.70;;;;;;5042508;28;20037;-62
2023/02/10 09:02:53;;;;;;;34.03;11.15;;;3.70;82.60;;;;;;5052599;28;20087;-60
2023/02/10 09:05:19;;;;;;;18.65;11.32;;;3.70;82.80;;;;;;5036488;28;20480;-60
2023/02/10 09:07:45;;;;;;;18.02;10.57;;;3.70;82.80;;;;;;5047808;28;20458;-62
2023/02/10 09:10:13;;;;;;;16.85;10.70;;;3.60;83.00;;;;;;5045136;28;20476;-62
2023/02/10 09:12:40;;;;;;;16.20;10.68;;;3.60;83.20;;;;;;5047968;28;20040;-62
2023/02/10 09:15:06;;;;;;;16.02;9.48;;;3.60;83.20;;;;;;5046239;28;20025;-62
2023/02/10 09:17:32;;;;;;;17.15;9.73;;;3.70;83.40;;;;;;5043581;28;20299;-62
2023/02/10 09:19:58;;;;;;;19.42;10.13;;;3.80;83.30;;;;;;5044108;28;20280;-60
2023/02/10 09:22:25;;;;;;;23.80;10.88;;;3.80;83.10;;;;;;5042743;28;20057;-62
2023/02/10 09:24:52;;;;;;;15.57;10.52;;;3.90;83.20;;;;;;5052492;28;20039;-61
2023/02/10 09:27:19;;;;;;;23.48;11.93;;;3.90;83.00;;;;;;5041063;28;20038;-62
2023/02/10 09:29:45;;;;;;;15.60;11.20;;;4.00;83.00;;;;;;5040772;28;20029;-62
2023/02/10 09:32:11;;;;;;;17.75;9.23;;;4.10;82.90;;;;;;5042026;28;20031;-62
2023/02/10 09:34:37;;;;;;;17.05;10.38;;;4.20;82.90;;;;;;5045327;28;20121;-62
2023/02/10 09:37:03;;;;;;;20.50;11.13;;;4.30;82.50;;;;;;5041673;28;20119;-60
2023/02/10 09:39:29;;;;;;;16.17;7.88;;;4.30;82.50;;;;;;5036877;28;20045;-60
2023/02/10 09:42:08;;;;;;;19.92;11.90;;;4.40;82.40;;;;;;5040253;28;20036;-60
2023/02/10 09:44:38;;;;;;;24.15;11.93;;;4.40;82.30;;;;;;5036330;28;20100;-59
2023/02/10 09:47:27;;;;;;;18.58;10.07;;;4.40;82.30;;;;;;5042476;28;20030;-61
2023/02/10 09:50:14;;;;;;;20.92;11.43;;;4.50;82.30;;;;;;5046163;28;20028;-61
2023/02/10 09:52:49;;;;;;;23.33;13.02;;;4.50;82.40;;;;;;5042382;28;20025;-60
2023/02/10 09:55:30;;;;;;;27.10;13.63;;;4.50;82.50;;;;;;5038857;28;20108;-60
2023/02/10 09:58:13;;;;;;;19.90;12.32;;;4.50;82.50;;;;;;5037795;28;20058;-60
2023/02/10 10:00:44;;;;;;;22.25;11.55;;;4.50;82.70;;;;;;5043301;28;20071;-60
2023/02/10 10:03:19;;;;;;;23.75;12.88;;;4.50;82.80;;;;;;5037620;28;20040;-60
2023/02/10 10:06:07;;;;;;;17.90;10.80;;;4.60;82.80;;;;;;5044095;28;20029;-60
2023/02/10 10:09:03;;;;;;;17.95;10.52;;;4.80;82.60;;;;;;5042884;28;20040;-62
2023/02/10 10:11:43;;;;;;;22.65;12.27;;;4.90;82.40;;;;;;5047197;28;20538;-62
2023/02/10 10:14:21;;;;;;;23.38;12.38;;;5.00;81.80;;;;;;5048850;28;20029;-63
2023/02/10 10:17:18;;;;;;;23.77;12.80;;;5.00;81.80;;;;;;5040578;28;20033;-62
2023/02/10 10:19:58;;;;;;;21.20;11.30;;;5.00;82.00;;;;;;5045692;28;20127;-62
2023/02/10 10:22:46;;;;;;;23.52;11.00;;;5.00;82.10;;;;;;5060695;28;20557;-62
2023/02/10 10:25:30;;;;;;;18.98;12.80;;;5.00;82.00;;;;;;5041803;28;20079;-62
2023/02/10 10:28:24;;;;;;;18.38;12.07;;;5.00;82.10;;;;;;5034382;28;20060;-62
2023/02/10 10:30:56;;;;;;;25.30;13.90;;;5.10;82.40;;;;;;5038798;28;20488;-63
2023/02/10 10:33:38;;;;;;;16.30;11.52;;;5.20;82.30;;;;;;5044513;28;20041;-62
2023/02/10 10:36:05;;;;;;;25.10;11.68;;;5.30;82.00;;;;;;5046695;28;20163;-62
2023/02/10 10:38:35;;;;;;;22.77;12.05;;;5.30;82.00;;;;;;5044892;28;20037;-62
2023/02/10 10:41:08;;;;;;;27.73;14.25;;;5.50;81.90;;;;;;5043052;28;20391;-62
2023/02/10 10:43:45;;;;;;;26.52;13.27;;;5.70;81.50;;;;;;5038232;28;20024;-62
2023/02/10 10:46:28;;;;;;;21.85;11.57;;;5.70;81.50;;;;;;5047987;28;20044;-61
2023/02/10 10:48:54;;;;;;;20.77;11.93;;;5.90;81.30;;;;;;5039574;28;21685;-61
2023/02/10 10:51:20;;;;;;;17.65;11.40;;;6.10;81.10;;;;;;5035784;28;20610;-60
2023/02/10 10:53:51;;;;;;;25.15;13.95;;;6.30;80.70;;;;;;5042439;28;20021;-60
2023/02/10 10:56:35;;;;;;;29.58;14.15;;;6.60;81.10;;;;;;5045223;28;20021;-60
2023/02/10 10:59:12;;;;;;;27.77;13.18;;;7.00;79.90;;;;;;5043546;28;20083;-63
2023/02/10 11:01:41;;;;;;;25.75;11.73;;;7.30;78.80;;;;;;5040290;28;20048;-63
2023/02/10 11:04:16;;;;;;;27.60;13.80;;;7.30;77.70;;;;;;5034750;28;20044;-61
2023/02/10 11:06:45;;;;;;;21.50;12.13;;;7.40;77.60;;;;;;5042907;28;20060;-61
2023/02/10 11:09:21;;;;;;;29.08;13.10;;;7.50;77.60;;;;;;5028711;28;20032;-63
2023/02/10 11:11:47;;;;;;;19.30;10.70;;;7.70;77.70;;;;;;5041519;28;20032;-63
2023/02/10 11:14:16;;;;;;;22.05;13.35;;;7.90;76.80;;;;;;5038784;28;20025;-63
2023/02/10 11:16:53;;;;;;;28.38;15.32;;;8.00;76.00;;;;;;5063686;28;20716;-62
2023/02/10 11:19:22;;;;;;;24.25;12.10;;;8.20;76.30;;;;;;5046565;28;20029;-63
2023/02/10 11:21:49;;;;;;;22.80;12.07;;;8.50;75.90;;;;;;5048240;28;20383;-63
2023/02/10 11:24:25;;;;;;;28.67;12.55;;;8.70;75.00;;;;;;5047122;28;20108;-62
2023/02/10 11:26:59;;;;;;;23.55;11.82;;;8.90;73.80;;;;;;5062426;28;20059;-60
2023/02/10 11:29:26;;;;;;;20.02;10.48;;;9.00;73.90;;;;;;5049202;28;20033;-60
2023/02/10 11:31:53;;;;;;;21.48;11.60;;;9.20;73.00;;;;;;5066531;28;20025;-61
2023/02/10 11:34:46;;;;;;;20.13;10.27;;;9.30;72.70;;;;;;5040876;28;20071;-60
2023/02/10 11:37:20;;;;;;;24.40;10.95;;;9.50;72.50;;;;;;5049373;28;20116;-62
2023/02/10 11:39:47;;;;;;;24.63;11.73;;;9.70;72.10;;;;;;5047265;28;20031;-62
2023/02/10 11:42:17;;;;;;;22.35;10.98;;;9.90;71.10;;;;;;5049543;28;20044;-62
2023/02/10 11:45:02;;;;;;;23.85;9.85;;;10.10;71.00;;;;;;5050515;28;20092;-62
2023/02/10 11:47:31;;;;;;;25.20;11.38;;;10.40;70.60;;;;;;5048263;28;20484;-62
2023/02/10 11:49:57;;;;;;;30.23;11.85;;;10.60;69.10;;;;;;5039637;28;20018;-62
2023/02/10 11:52:32;;;;;;;26.38;11.15;;;10.60;68.60;;;;;;5048003;28;20035;-62
2023/02/10 11:54:58;;;;;;;19.67;9.32;;;10.60;68.20;;;;;;5052637;28;20074;-62
2023/02/10 12:01:06;;;;;;;26.50;9.73;;;10.60;68.30;;;;;;5049531;28;20037;-61
2023/02/10 12:03:35;;;;;;;21.92;9.82;;;11.10;67.90;;;;;;5051299;28;20032;-61
2023/02/10 12:06:10;;;;;;;21.90;10.02;;;11.80;65.90;;;;;;5046971;28;20033;-61
2023/02/10 12:09:10;;;;;;;13.93;7.05;;;12.40;62.90;;;;;;5043222;28;20038;-60
2023/02/10 12:11:48;;;;;;;22.48;9.02;;;13.20;60.10;;;;;;5052971;28;20100;-61
2023/02/10 12:14:47;;;;;;;21.30;7.82;;;14.00;57.90;;;;;;5045279;28;20039;-61
2023/02/10 12:17:27;;;;;;;21.35;9.85;;;14.60;56.70;;;;;;5044200;28;20036;-60
2023/02/10 12:20:13;;;;;;;22.85;8.63;;;15.30;55.60;;;;;;5049322;28;20028;-60
2023/02/10 12:23:07;;;;;;;20.95;9.70;;;15.90;55.10;;;;;;5050466;28;20049;-61
2023/02/10 12:25:42;;;;;;;18.95;8.30;;;16.80;51.30;;;;;;5046951;28;20060;-62
2023/02/10 12:28:28;;;;;;;13.02;6.57;;;17.10;50.10;;;;;;5048393;28;20028;-62
2023/02/10 12:31:06;;;;;;;14.57;7.10;;;17.50;49.70;;;;;;5038633;28;20021;-61
2023/02/10 12:33:39;;;;;;;16.83;7.15;;;18.00;47.80;;;;;;5048581;28;20028;-61
2023/02/10 12:36:37;;;;;;;14.27;7.65;;;18.30;47.80;;;;;;5048547;28;20021;-62
2023/02/10 12:39:19;;;;;;;11.85;5.20;;;19.00;46.80;;;;;;5052114;28;20783;-61
2023/02/10 12:42:06;;;;;;;10.98;5.47;;;19.70;45.60;;;;;;5053314;28;20114;-61
2023/02/10 12:45:00;;;;;;;13.88;6.47;;;20.00;44.00;;;;;;5047072;28;20029;-62
2023/02/10 12:47:39;;;;;;;10.50;5.78;;;20.00;43.90;;;;;;5035614;28;20041;-63
2023/02/10 12:50:28;;;;;;;15.07;5.78;;;20.40;42.20;;;;;;5042396;28;20416;-62
2023/02/10 12:53:05;;;;;;;13.85;6.20;;;20.20;41.30;;;;;;5054511;28;20155;-61
2023/02/10 12:55:56;;;;;;;10.10;5.72;;;20.30;42.10;;;;;;5051363;28;20048;-61
2023/02/10 12:58:32;;;;;;;8.55;3.85;;;20.30;40.00;;;;;;5050103;28;20050;-61
2023/02/10 13:01:29;;;;;;;8.57;5.38;;;20.00;40.60;;;;;;5053189;28;20037;-61
2023/02/10 13:04:21;;;;;;;15.57;5.05;;;19.80;40.30;;;;;;5046473;28;20027;-62